sensor_id;sensor_type;location;lat;lon;timestamp;P1;durP1;ratioP1;P2;durP2;ratioP2
39728;SDS011;25402;42.004;23.088;2023-05-09T00:01:12;11.95;;;7.90;;
39728;SDS011;25402;42.004;23.088;2023-05-09T00:03:39;11.07;;;7.80;;
39728;SDS011;25402;42.004;23.088;2023-05-09T00:06:07;13.52;;;7.75;;
39728;SDS011;25402;42.004;23.088;2023-05-09T00:08:35;13.70;;;7.57;;
39728;SDS011;25402;42.004;23.088;2023-05-09T00:11:03;14.00;;;8.15;;
39728;SDS011;25402;42.004;23.088;2023-05-09T00:13:31;11.50;;;7.28;;
39728;SDS011;25402;42.004;23.088;2023-05-09T00:15:59;13.57;;;8.45;;
39728;SDS011;25402;42.004;23.088;2023-05-09T00:18:26;12.95;;;7.63;;
39728;SDS011;25402;42.004;23.088;2023-05-09T00:20:55;12.68;;;8.02;;
39728;SDS011;25402;42.004;23.088;2023-05-09T00:23:22;13.23;;;8.05;;
39728;SDS011;25402;42.004;23.088;2023-05-09T00:25:48;12.60;;;8.13;;
39728;SDS011;25402;42.004;23.088;2023-05-09T00:28:15;9.50;;;7.60;;
39728;SDS011;25402;42.004;23.088;2023-05-09T00:30:44;12.43;;;8.45;;
39728;SDS011;25402;42.004;23.088;2023-05-09T00:33:10;15.52;;;8.25;;
39728;SDS011;25402;42.004;23.088;2023-05-09T00:35:38;11.93;;;7.80;;
39728;SDS011;25402;42.004;23.088;2023-05-09T00:38:05;11.98;;;8.00;;
39728;SDS011;25402;42.004;23.088;2023-05-09T00:40:32;16.27;;;8.75;;
39728;SDS011;25402;42.004;23.088;2023-05-09T00:42:59;20.75;;;7.70;;
39728;SDS011;25402;42.004;23.088;2023-05-09T00:45:26;14.50;;;8.63;;
39728;SDS011;25402;42.004;23.088;2023-05-09T00:47:54;11.90;;;7.78;;
39728;SDS011;25402;42.004;23.088;2023-05-09T00:50:21;15.00;;;8.45;;
39728;SDS011;25402;42.004;23.088;2023-05-09T00:52:49;9.40;;;7.82;;
39728;SDS011;25402;42.004;23.088;2023-05-09T00:55:16;11.27;;;7.63;;
39728;SDS011;25402;42.004;23.088;2023-05-09T00:57:43;13.88;;;8.98;;
39728;SDS011;25402;42.004;23.088;2023-05-09T01:00:11;12.52;;;9.35;;
39728;SDS011;25402;42.004;23.088;2023-05-09T01:02:39;16.40;;;11.13;;
39728;SDS011;25402;42.004;23.088;2023-05-09T01:05:08;17.38;;;11.60;;
39728;SDS011;25402;42.004;23.088;2023-05-09T01:07:37;18.65;;;12.43;;
39728;SDS011;25402;42.004;23.088;2023-05-09T01:10:13;18.67;;;12.35;;
39728;SDS011;25402;42.004;23.088;2023-05-09T01:12:46;20.50;;;11.98;;
39728;SDS011;25402;42.004;23.088;2023-05-09T01:15:24;17.05;;;11.55;;
39728;SDS011;25402;42.004;23.088;2023-05-09T01:17:57;16.50;;;11.98;;
39728;SDS011;25402;42.004;23.088;2023-05-09T01:20:32;19.38;;;11.52;;
39728;SDS011;25402;42.004;23.088;2023-05-09T01:23:11;17.38;;;11.55;;
39728;SDS011;25402;42.004;23.088;2023-05-09T01:26:01;23.33;;;11.73;;
39728;SDS011;25402;42.004;23.088;2023-05-09T01:28:43;17.52;;;11.68;;
39728;SDS011;25402;42.004;23.088;2023-05-09T01:31:33;20.05;;;11.18;;
39728;SDS011;25402;42.004;23.088;2023-05-09T01:34:05;16.02;;;11.07;;
39728;SDS011;25402;42.004;23.088;2023-05-09T01:36:35;20.67;;;11.45;;
39728;SDS011;25402;42.004;23.088;2023-05-09T01:39:05;16.83;;;12.15;;
39728;SDS011;25402;42.004;23.088;2023-05-09T01:41:37;20.33;;;12.25;;
39728;SDS011;25402;42.004;23.088;2023-05-09T01:44:05;22.33;;;12.00;;
39728;SDS011;25402;42.004;23.088;2023-05-09T01:46:37;18.05;;;12.07;;
39728;SDS011;25402;42.004;23.088;2023-05-09T01:49:05;19.42;;;11.65;;
39728;SDS011;25402;42.004;23.088;2023-05-09T01:51:33;17.90;;;11.27;;
39728;SDS011;25402;42.004;23.088;2023-05-09T01:54:05;17.30;;;10.65;;
39728;SDS011;25402;42.004;23.088;2023-05-09T01:56:33;18.05;;;10.82;;
39728;SDS011;25402;42.004;23.088;2023-05-09T01:59:02;18.98;;;11.25;;
39728;SDS011;25402;42.004;23.088;2023-05-09T02:01:31;15.88;;;10.98;;
39728;SDS011;25402;42.004;23.088;2023-05-09T02:04:01;16.95;;;10.20;;
39728;SDS011;25402;42.004;23.088;2023-05-09T02:06:30;20.58;;;10.48;;
39728;SDS011;25402;42.004;23.088;2023-05-09T02:08:58;16.67;;;10.43;;
39728;SDS011;25402;42.004;23.088;2023-05-09T02:11:27;20.85;;;9.85;;
39728;SDS011;25402;42.004;23.088;2023-05-09T02:13:53;17.83;;;10.80;;
39728;SDS011;25402;42.004;23.088;2023-05-09T02:16:20;14.90;;;9.98;;
39728;SDS011;25402;42.004;23.088;2023-05-09T02:18:47;11.82;;;7.72;;
39728;SDS011;25402;42.004;23.088;2023-05-09T02:21:16;13.75;;;6.90;;
39728;SDS011;25402;42.004;23.088;2023-05-09T02:23:42;17.25;;;7.70;;
39728;SDS011;25402;42.004;23.088;2023-05-09T02:26:10;16.45;;;8.90;;
39728;SDS011;25402;42.004;23.088;2023-05-09T02:28:37;13.85;;;9.02;;
39728;SDS011;25402;42.004;23.088;2023-05-09T02:31:06;13.60;;;9.85;;
39728;SDS011;25402;42.004;23.088;2023-05-09T02:33:35;14.30;;;10.00;;
39728;SDS011;25402;42.004;23.088;2023-05-09T02:36:05;20.33;;;9.88;;
39728;SDS011;25402;42.004;23.088;2023-05-09T02:38:35;15.07;;;8.77;;
39728;SDS011;25402;42.004;23.088;2023-05-09T02:41:02;13.48;;;8.50;;
39728;SDS011;25402;42.004;23.088;2023-05-09T02:43:29;9.35;;;5.60;;
39728;SDS011;25402;42.004;23.088;2023-05-09T02:45:56;9.20;;;5.93;;
39728;SDS011;25402;42.004;23.088;2023-05-09T02:48:23;28.35;;;6.05;;
39728;SDS011;25402;42.004;23.088;2023-05-09T02:50:50;11.70;;;6.03;;
39728;SDS011;25402;42.004;23.088;2023-05-09T02:53:17;11.93;;;6.40;;
39728;SDS011;25402;42.004;23.088;2023-05-09T02:55:47;32.85;;;15.50;;
39728;SDS011;25402;42.004;23.088;2023-05-09T02:58:15;11.35;;;6.72;;
39728;SDS011;25402;42.004;23.088;2023-05-09T03:00:42;9.98;;;6.30;;
39728;SDS011;25402;42.004;23.088;2023-05-09T03:03:09;8.65;;;6.60;;
39728;SDS011;25402;42.004;23.088;2023-05-09T03:05:36;9.02;;;6.47;;
39728;SDS011;25402;42.004;23.088;2023-05-09T03:08:03;14.07;;;6.40;;
39728;SDS011;25402;42.004;23.088;2023-05-09T03:10:31;8.85;;;6.55;;
39728;SDS011;25402;42.004;23.088;2023-05-09T03:12:59;9.68;;;6.35;;
39728;SDS011;25402;42.004;23.088;2023-05-09T03:15:27;10.30;;;7.53;;
39728;SDS011;25402;42.004;23.088;2023-05-09T03:17:54;9.68;;;7.07;;
39728;SDS011;25402;42.004;23.088;2023-05-09T03:20:21;13.95;;;7.72;;
39728;SDS011;25402;42.004;23.088;2023-05-09T03:22:48;12.35;;;7.88;;
39728;SDS011;25402;42.004;23.088;2023-05-09T03:25:16;13.63;;;7.85;;
39728;SDS011;25402;42.004;23.088;2023-05-09T03:27:43;12.15;;;6.90;;
39728;SDS011;25402;42.004;23.088;2023-05-09T03:30:13;9.95;;;7.22;;
39728;SDS011;25402;42.004;23.088;2023-05-09T03:32:41;13.05;;;7.38;;
39728;SDS011;25402;42.004;23.088;2023-05-09T03:35:08;14.30;;;7.32;;
39728;SDS011;25402;42.004;23.088;2023-05-09T03:37:35;14.60;;;7.20;;
39728;SDS011;25402;42.004;23.088;2023-05-09T03:40:02;13.07;;;6.75;;
39728;SDS011;25402;42.004;23.088;2023-05-09T03:42:30;15.27;;;6.93;;
39728;SDS011;25402;42.004;23.088;2023-05-09T03:44:57;7.72;;;4.88;;
39728;SDS011;25402;42.004;23.088;2023-05-09T03:47:25;7.43;;;4.97;;
39728;SDS011;25402;42.004;23.088;2023-05-09T03:49:52;8.70;;;5.85;;
39728;SDS011;25402;42.004;23.088;2023-05-09T03:52:24;14.13;;;5.40;;
39728;SDS011;25402;42.004;23.088;2023-05-09T03:54:54;7.40;;;4.50;;
39728;SDS011;25402;42.004;23.088;2023-05-09T03:57:21;7.43;;;4.45;;
39728;SDS011;25402;42.004;23.088;2023-05-09T03:59:48;14.60;;;4.28;;
39728;SDS011;25402;42.004;23.088;2023-05-09T04:02:18;12.00;;;4.88;;
39728;SDS011;25402;42.004;23.088;2023-05-09T04:04:50;8.43;;;5.18;;
39728;SDS011;25402;42.004;23.088;2023-05-09T04:07:33;18.92;;;5.10;;
39728;SDS011;25402;42.004;23.088;2023-05-09T04:10:13;15.27;;;4.97;;
39728;SDS011;25402;42.004;23.088;2023-05-09T04:12:56;10.23;;;4.80;;
39728;SDS011;25402;42.004;23.088;2023-05-09T04:15:24;8.13;;;4.85;;
39728;SDS011;25402;42.004;23.088;2023-05-09T04:18:00;12.30;;;4.97;;
39728;SDS011;25402;42.004;23.088;2023-05-09T04:20:30;7.68;;;4.30;;
39728;SDS011;25402;42.004;23.088;2023-05-09T04:22:57;9.50;;;4.45;;
39728;SDS011;25402;42.004;23.088;2023-05-09T04:25:27;12.70;;;5.18;;
39728;SDS011;25402;42.004;23.088;2023-05-09T04:27:55;8.70;;;4.45;;
39728;SDS011;25402;42.004;23.088;2023-05-09T04:30:22;4.72;;;3.47;;
39728;SDS011;25402;42.004;23.088;2023-05-09T04:32:54;11.40;;;4.43;;
39728;SDS011;25402;42.004;23.088;2023-05-09T04:35:26;9.95;;;4.15;;
39728;SDS011;25402;42.004;23.088;2023-05-09T04:37:55;10.38;;;4.05;;
39728;SDS011;25402;42.004;23.088;2023-05-09T04:40:22;11.68;;;4.07;;
39728;SDS011;25402;42.004;23.088;2023-05-09T04:42:54;16.88;;;6.95;;
39728;SDS011;25402;42.004;23.088;2023-05-09T04:45:22;9.63;;;4.10;;
39728;SDS011;25402;42.004;23.088;2023-05-09T04:47:50;9.55;;;3.30;;
39728;SDS011;25402;42.004;23.088;2023-05-09T04:50:17;10.80;;;3.65;;
39728;SDS011;25402;42.004;23.088;2023-05-09T04:52:46;7.00;;;3.88;;
39728;SDS011;25402;42.004;23.088;2023-05-09T04:55:18;12.30;;;3.30;;
39728;SDS011;25402;42.004;23.088;2023-05-09T04:57:45;12.63;;;4.85;;
39728;SDS011;25402;42.004;23.088;2023-05-09T05:00:19;9.20;;;3.35;;
39728;SDS011;25402;42.004;23.088;2023-05-09T05:02:50;8.63;;;3.55;;
39728;SDS011;25402;42.004;23.088;2023-05-09T05:05:22;9.13;;;3.47;;
39728;SDS011;25402;42.004;23.088;2023-05-09T05:07:51;13.98;;;3.50;;
39728;SDS011;25402;42.004;23.088;2023-05-09T05:10:21;10.90;;;3.65;;
39728;SDS011;25402;42.004;23.088;2023-05-09T05:12:48;10.20;;;3.90;;
39728;SDS011;25402;42.004;23.088;2023-05-09T05:15:26;12.15;;;3.22;;
39728;SDS011;25402;42.004;23.088;2023-05-09T05:17:56;5.57;;;3.80;;
39728;SDS011;25402;42.004;23.088;2023-05-09T05:20:24;10.13;;;3.67;;
39728;SDS011;25402;42.004;23.088;2023-05-09T05:22:51;9.07;;;3.92;;
39728;SDS011;25402;42.004;23.088;2023-05-09T05:25:24;7.13;;;3.47;;
39728;SDS011;25402;42.004;23.088;2023-05-09T05:27:52;7.13;;;3.30;;
39728;SDS011;25402;42.004;23.088;2023-05-09T05:30:20;10.27;;;3.38;;
39728;SDS011;25402;42.004;23.088;2023-05-09T05:32:47;7.68;;;3.63;;
39728;SDS011;25402;42.004;23.088;2023-05-09T05:35:14;6.18;;;2.90;;
39728;SDS011;25402;42.004;23.088;2023-05-09T05:37:42;8.52;;;3.80;;
39728;SDS011;25402;42.004;23.088;2023-05-09T05:40:09;6.40;;;3.22;;
39728;SDS011;25402;42.004;23.088;2023-05-09T05:42:39;8.65;;;3.20;;
39728;SDS011;25402;42.004;23.088;2023-05-09T05:45:08;6.53;;;3.05;;
39728;SDS011;25402;42.004;23.088;2023-05-09T05:47:36;7.72;;;5.03;;
39728;SDS011;25402;42.004;23.088;2023-05-09T05:50:03;8.05;;;3.15;;
39728;SDS011;25402;42.004;23.088;2023-05-09T05:52:33;8.75;;;3.47;;
39728;SDS011;25402;42.004;23.088;2023-05-09T05:55:02;9.32;;;3.85;;
39728;SDS011;25402;42.004;23.088;2023-05-09T05:57:30;6.72;;;3.47;;
39728;SDS011;25402;42.004;23.088;2023-05-09T06:00:00;7.38;;;4.55;;
39728;SDS011;25402;42.004;23.088;2023-05-09T06:02:31;9.97;;;4.20;;
39728;SDS011;25402;42.004;23.088;2023-05-09T06:05:02;7.10;;;3.60;;
39728;SDS011;25402;42.004;23.088;2023-05-09T06:07:31;6.10;;;3.97;;
39728;SDS011;25402;42.004;23.088;2023-05-09T06:10:00;13.18;;;5.72;;
39728;SDS011;25402;42.004;23.088;2023-05-09T06:12:27;9.73;;;4.50;;
39728;SDS011;25402;42.004;23.088;2023-05-09T06:14:54;9.27;;;3.92;;
39728;SDS011;25402;42.004;23.088;2023-05-09T06:17:23;8.73;;;3.67;;
39728;SDS011;25402;42.004;23.088;2023-05-09T06:19:50;7.55;;;4.00;;
39728;SDS011;25402;42.004;23.088;2023-05-09T06:22:18;11.30;;;5.70;;
39728;SDS011;25402;42.004;23.088;2023-05-09T06:24:47;13.98;;;6.75;;
39728;SDS011;25402;42.004;23.088;2023-05-09T06:27:14;7.03;;;4.07;;
39728;SDS011;25402;42.004;23.088;2023-05-09T06:29:44;8.38;;;4.68;;
39728;SDS011;25402;42.004;23.088;2023-05-09T06:32:11;8.60;;;5.15;;
39728;SDS011;25402;42.004;23.088;2023-05-09T06:34:41;6.68;;;3.65;;
39728;SDS011;25402;42.004;23.088;2023-05-09T06:37:09;8.27;;;3.65;;
39728;SDS011;25402;42.004;23.088;2023-05-09T06:39:36;8.02;;;3.63;;
39728;SDS011;25402;42.004;23.088;2023-05-09T06:42:03;5.63;;;3.47;;
39728;SDS011;25402;42.004;23.088;2023-05-09T06:44:32;5.25;;;3.42;;
39728;SDS011;25402;42.004;23.088;2023-05-09T06:46:59;5.68;;;3.40;;
39728;SDS011;25402;42.004;23.088;2023-05-09T06:49:26;5.30;;;3.45;;
39728;SDS011;25402;42.004;23.088;2023-05-09T06:51:55;7.40;;;3.85;;
39728;SDS011;25402;42.004;23.088;2023-05-09T06:54:24;10.50;;;4.00;;
39728;SDS011;25402;42.004;23.088;2023-05-09T06:56:52;9.45;;;3.30;;
39728;SDS011;25402;42.004;23.088;2023-05-09T06:59:19;6.40;;;3.33;;
39728;SDS011;25402;42.004;23.088;2023-05-09T07:01:48;10.13;;;3.05;;
39728;SDS011;25402;42.004;23.088;2023-05-09T07:04:16;9.18;;;4.90;;
39728;SDS011;25402;42.004;23.088;2023-05-09T07:06:45;13.05;;;6.15;;
39728;SDS011;25402;42.004;23.088;2023-05-09T07:09:15;7.47;;;3.35;;
39728;SDS011;25402;42.004;23.088;2023-05-09T07:11:53;7.22;;;2.30;;
39728;SDS011;25402;42.004;23.088;2023-05-09T07:14:20;7.72;;;4.45;;
39728;SDS011;25402;42.004;23.088;2023-05-09T07:16:48;8.40;;;3.40;;
39728;SDS011;25402;42.004;23.088;2023-05-09T07:19:20;3.97;;;2.72;;
39728;SDS011;25402;42.004;23.088;2023-05-09T07:21:49;7.68;;;3.50;;
39728;SDS011;25402;42.004;23.088;2023-05-09T07:24:20;6.32;;;2.70;;
39728;SDS011;25402;42.004;23.088;2023-05-09T07:26:51;4.63;;;2.42;;
39728;SDS011;25402;42.004;23.088;2023-05-09T07:29:19;5.78;;;2.55;;
39728;SDS011;25402;42.004;23.088;2023-05-09T07:31:47;8.85;;;3.03;;
39728;SDS011;25402;42.004;23.088;2023-05-09T07:34:19;3.53;;;2.90;;
39728;SDS011;25402;42.004;23.088;2023-05-09T07:36:48;4.07;;;2.00;;
39728;SDS011;25402;42.004;23.088;2023-05-09T07:39:16;5.28;;;1.90;;
39728;SDS011;25402;42.004;23.088;2023-05-09T07:41:45;5.75;;;1.92;;
39728;SDS011;25402;42.004;23.088;2023-05-09T07:44:14;5.05;;;2.22;;
39728;SDS011;25402;42.004;23.088;2023-05-09T07:46:44;15.55;;;9.30;;
39728;SDS011;25402;42.004;23.088;2023-05-09T07:49:14;3.90;;;2.90;;
39728;SDS011;25402;42.004;23.088;2023-05-09T07:51:43;6.00;;;2.30;;
39728;SDS011;25402;42.004;23.088;2023-05-09T07:54:12;3.92;;;2.47;;
39728;SDS011;25402;42.004;23.088;2023-05-09T07:56:40;6.43;;;2.42;;
39728;SDS011;25402;42.004;23.088;2023-05-09T07:59:10;9.70;;;3.08;;
39728;SDS011;25402;42.004;23.088;2023-05-09T08:01:37;7.47;;;3.25;;
39728;SDS011;25402;42.004;23.088;2023-05-09T08:04:04;7.28;;;3.25;;
39728;SDS011;25402;42.004;23.088;2023-05-09T08:06:33;15.02;;;5.60;;
39728;SDS011;25402;42.004;23.088;2023-05-09T08:09:00;6.95;;;3.00;;
39728;SDS011;25402;42.004;23.088;2023-05-09T08:11:28;24.75;;;2.97;;
39728;SDS011;25402;42.004;23.088;2023-05-09T08:13:58;5.20;;;1.92;;
39728;SDS011;25402;42.004;23.088;2023-05-09T08:16:29;7.78;;;3.03;;
39728;SDS011;25402;42.004;23.088;2023-05-09T08:19:00;4.57;;;2.28;;
39728;SDS011;25402;42.004;23.088;2023-05-09T08:21:27;2.28;;;1.38;;
39728;SDS011;25402;42.004;23.088;2023-05-09T08:23:54;3.25;;;1.40;;
39728;SDS011;25402;42.004;23.088;2023-05-09T08:26:21;2.55;;;1.25;;
39728;SDS011;25402;42.004;23.088;2023-05-09T08:28:48;19.23;;;6.75;;
39728;SDS011;25402;42.004;23.088;2023-05-09T08:31:14;21.77;;;5.65;;
39728;SDS011;25402;42.004;23.088;2023-05-09T08:33:46;12.18;;;5.82;;
39728;SDS011;25402;42.004;23.088;2023-05-09T08:36:13;11.93;;;5.63;;
39728;SDS011;25402;42.004;23.088;2023-05-09T08:38:40;8.77;;;3.30;;
39728;SDS011;25402;42.004;23.088;2023-05-09T08:41:13;5.82;;;2.38;;
39728;SDS011;25402;42.004;23.088;2023-05-09T08:43:52;11.32;;;2.50;;
39728;SDS011;25402;42.004;23.088;2023-05-09T08:46:21;6.78;;;1.25;;
39728;SDS011;25402;42.004;23.088;2023-05-09T08:48:54;3.75;;;1.65;;
39728;SDS011;25402;42.004;23.088;2023-05-09T08:51:23;4.88;;;1.60;;
39728;SDS011;25402;42.004;23.088;2023-05-09T08:53:51;1.67;;;1.27;;
39728;SDS011;25402;42.004;23.088;2023-05-09T08:56:18;8.80;;;1.88;;
39728;SDS011;25402;42.004;23.088;2023-05-09T08:58:45;7.68;;;1.55;;
39728;SDS011;25402;42.004;23.088;2023-05-09T09:01:13;3.88;;;1.30;;
39728;SDS011;25402;42.004;23.088;2023-05-09T09:03:40;5.25;;;2.08;;
39728;SDS011;25402;42.004;23.088;2023-05-09T09:06:13;17.00;;;4.57;;
39728;SDS011;25402;42.004;23.088;2023-05-09T09:08:41;12.07;;;5.75;;
39728;SDS011;25402;42.004;23.088;2023-05-09T09:11:13;9.32;;;5.35;;
39728;SDS011;25402;42.004;23.088;2023-05-09T09:13:41;8.80;;;4.10;;
39728;SDS011;25402;42.004;23.088;2023-05-09T09:16:12;18.40;;;10.10;;
39728;SDS011;25402;42.004;23.088;2023-05-09T09:18:44;13.32;;;5.72;;
39728;SDS011;25402;42.004;23.088;2023-05-09T09:21:15;11.90;;;6.60;;
39728;SDS011;25402;42.004;23.088;2023-05-09T09:23:45;4.65;;;1.27;;
39728;SDS011;25402;42.004;23.088;2023-05-09T09:26:14;2.20;;;1.67;;
39728;SDS011;25402;42.004;23.088;2023-05-09T09:28:42;3.28;;;1.67;;
39728;SDS011;25402;42.004;23.088;2023-05-09T09:31:18;4.05;;;2.15;;
39728;SDS011;25402;42.004;23.088;2023-05-09T09:33:47;3.90;;;1.70;;
39728;SDS011;25402;42.004;23.088;2023-05-09T09:36:26;3.88;;;1.48;;
39728;SDS011;25402;42.004;23.088;2023-05-09T09:38:57;2.30;;;1.42;;
39728;SDS011;25402;42.004;23.088;2023-05-09T09:41:29;9.13;;;2.85;;
39728;SDS011;25402;42.004;23.088;2023-05-09T09:43:57;4.55;;;1.35;;
39728;SDS011;25402;42.004;23.088;2023-05-09T09:46:24;2.80;;;1.40;;
39728;SDS011;25402;42.004;23.088;2023-05-09T09:48:52;4.15;;;1.20;;
39728;SDS011;25402;42.004;23.088;2023-05-09T09:51:21;4.40;;;1.90;;
39728;SDS011;25402;42.004;23.088;2023-05-09T09:56:21;2.53;;;1.33;;
39728;SDS011;25402;42.004;23.088;2023-05-09T09:59:07;2.20;;;1.20;;
39728;SDS011;25402;42.004;23.088;2023-05-09T10:04:22;2.47;;;1.50;;
39728;SDS011;25402;42.004;23.088;2023-05-09T10:06:52;1.98;;;1.30;;
39728;SDS011;25402;42.004;23.088;2023-05-09T10:09:20;10.80;;;1.98;;
39728;SDS011;25402;42.004;23.088;2023-05-09T10:11:51;22.70;;;1.85;;
39728;SDS011;25402;42.004;23.088;2023-05-09T10:14:22;3.58;;;1.20;;
39728;SDS011;25402;42.004;23.088;2023-05-09T10:16:53;1.83;;;1.23;;
39728;SDS011;25402;42.004;23.088;2023-05-09T10:19:21;4.85;;;1.88;;
39728;SDS011;25402;42.004;23.088;2023-05-09T10:21:52;2.38;;;1.50;;
39728;SDS011;25402;42.004;23.088;2023-05-09T10:24:21;1.48;;;1.10;;
39728;SDS011;25402;42.004;23.088;2023-05-09T10:26:55;16.25;;;1.90;;
39728;SDS011;25402;42.004;23.088;2023-05-09T10:29:33;3.92;;;1.52;;
39728;SDS011;25402;42.004;23.088;2023-05-09T10:32:07;2.40;;;1.35;;
39728;SDS011;25402;42.004;23.088;2023-05-09T10:34:41;2.85;;;1.50;;
39728;SDS011;25402;42.004;23.088;2023-05-09T10:37:14;1.60;;;1.00;;
39728;SDS011;25402;42.004;23.088;2023-05-09T10:39:41;2.78;;;1.60;;
39728;SDS011;25402;42.004;23.088;2023-05-09T10:42:09;7.72;;;2.13;;
39728;SDS011;25402;42.004;23.088;2023-05-09T10:44:38;16.75;;;2.53;;
39728;SDS011;25402;42.004;23.088;2023-05-09T10:47:05;6.13;;;2.10;;
39728;SDS011;25402;42.004;23.088;2023-05-09T10:49:40;10.18;;;2.08;;
39728;SDS011;25402;42.004;23.088;2023-05-09T10:52:08;5.85;;;1.70;;
39728;SDS011;25402;42.004;23.088;2023-05-09T10:54:37;5.15;;;1.63;;
39728;SDS011;25402;42.004;23.088;2023-05-09T10:57:04;3.72;;;1.73;;
39728;SDS011;25402;42.004;23.088;2023-05-09T10:59:38;6.20;;;1.60;;
39728;SDS011;25402;42.004;23.088;2023-05-09T11:02:10;6.28;;;1.73;;
39728;SDS011;25402;42.004;23.088;2023-05-09T11:04:38;2.67;;;1.80;;
39728;SDS011;25402;42.004;23.088;2023-05-09T11:07:06;4.35;;;2.05;;
39728;SDS011;25402;42.004;23.088;2023-05-09T11:09:51;3.67;;;1.60;;
39728;SDS011;25402;42.004;23.088;2023-05-09T11:12:19;7.38;;;2.00;;
39728;SDS011;25402;42.004;23.088;2023-05-09T11:14:49;3.95;;;2.00;;
39728;SDS011;25402;42.004;23.088;2023-05-09T11:17:27;6.63;;;1.98;;
39728;SDS011;25402;42.004;23.088;2023-05-09T11:19:57;9.43;;;1.85;;
39728;SDS011;25402;42.004;23.088;2023-05-09T11:22:28;7.05;;;3.80;;
39728;SDS011;25402;42.004;23.088;2023-05-09T11:25:02;4.78;;;3.50;;
39728;SDS011;25402;42.004;23.088;2023-05-09T11:27:38;9.30;;;2.38;;
39728;SDS011;25402;42.004;23.088;2023-05-09T11:30:09;5.03;;;2.28;;
39728;SDS011;25402;42.004;23.088;2023-05-09T11:32:51;2.80;;;2.08;;
39728;SDS011;25402;42.004;23.088;2023-05-09T11:35:19;3.53;;;2.17;;
39728;SDS011;25402;42.004;23.088;2023-05-09T11:37:49;19.25;;;2.60;;
39728;SDS011;25402;42.004;23.088;2023-05-09T11:40:20;4.88;;;2.63;;
39728;SDS011;25402;42.004;23.088;2023-05-09T11:42:48;5.13;;;2.88;;
39728;SDS011;25402;42.004;23.088;2023-05-09T11:45:18;9.73;;;2.78;;
39728;SDS011;25402;42.004;23.088;2023-05-09T11:47:45;3.70;;;2.05;;
39728;SDS011;25402;42.004;23.088;2023-05-09T11:50:13;7.60;;;2.10;;
39728;SDS011;25402;42.004;23.088;2023-05-09T11:52:43;3.22;;;2.20;;
39728;SDS011;25402;42.004;23.088;2023-05-09T11:55:12;6.88;;;2.20;;
39728;SDS011;25402;42.004;23.088;2023-05-09T11:57:43;3.28;;;2.33;;
39728;SDS011;25402;42.004;23.088;2023-05-09T12:00:12;7.60;;;2.60;;
39728;SDS011;25402;42.004;23.088;2023-05-09T12:02:42;16.38;;;9.23;;
39728;SDS011;25402;42.004;23.088;2023-05-09T12:05:11;6.70;;;4.65;;
39728;SDS011;25402;42.004;23.088;2023-05-09T12:07:41;5.63;;;4.00;;
39728;SDS011;25402;42.004;23.088;2023-05-09T12:10:09;28.95;;;15.93;;
39728;SDS011;25402;42.004;23.088;2023-05-09T12:12:42;6.20;;;3.70;;
39728;SDS011;25402;42.004;23.088;2023-05-09T12:17:38;7.20;;;2.97;;
39728;SDS011;25402;42.004;23.088;2023-05-09T12:20:07;8.50;;;3.22;;
39728;SDS011;25402;42.004;23.088;2023-05-09T12:22:34;4.20;;;3.38;;
39728;SDS011;25402;42.004;23.088;2023-05-09T12:25:04;5.00;;;2.97;;
39728;SDS011;25402;42.004;23.088;2023-05-09T12:27:33;5.35;;;3.15;;
39728;SDS011;25402;42.004;23.088;2023-05-09T12:30:06;5.30;;;3.50;;
39728;SDS011;25402;42.004;23.088;2023-05-09T12:32:35;4.63;;;3.70;;
39728;SDS011;25402;42.004;23.088;2023-05-09T12:35:05;6.25;;;3.67;;
39728;SDS011;25402;42.004;23.088;2023-05-09T12:37:33;5.78;;;3.95;;
39728;SDS011;25402;42.004;23.088;2023-05-09T12:40:00;5.43;;;4.60;;
39728;SDS011;25402;42.004;23.088;2023-05-09T12:42:29;19.35;;;10.45;;
39728;SDS011;25402;42.004;23.088;2023-05-09T12:44:56;23.75;;;11.75;;
39728;SDS011;25402;42.004;23.088;2023-05-09T12:47:26;11.77;;;5.93;;
39728;SDS011;25402;42.004;23.088;2023-05-09T12:49:56;7.38;;;4.95;;
39728;SDS011;25402;42.004;23.088;2023-05-09T12:52:24;6.90;;;4.20;;
39728;SDS011;25402;42.004;23.088;2023-05-09T12:54:51;9.05;;;4.90;;
39728;SDS011;25402;42.004;23.088;2023-05-09T12:57:19;5.80;;;4.60;;
39728;SDS011;25402;42.004;23.088;2023-05-09T12:59:48;8.05;;;5.10;;
39728;SDS011;25402;42.004;23.088;2023-05-09T13:02:15;7.40;;;4.95;;
39728;SDS011;25402;42.004;23.088;2023-05-09T13:04:53;7.82;;;4.60;;
39728;SDS011;25402;42.004;23.088;2023-05-09T13:07:37;7.78;;;4.78;;
39728;SDS011;25402;42.004;23.088;2023-05-09T13:10:08;11.25;;;5.00;;
39728;SDS011;25402;42.004;23.088;2023-05-09T13:12:36;9.15;;;4.82;;
39728;SDS011;25402;42.004;23.088;2023-05-09T13:15:05;6.05;;;4.90;;
39728;SDS011;25402;42.004;23.088;2023-05-09T13:17:41;6.35;;;4.72;;
39728;SDS011;25402;42.004;23.088;2023-05-09T13:20:09;12.63;;;4.50;;
39728;SDS011;25402;42.004;23.088;2023-05-09T13:22:37;5.85;;;4.53;;
39728;SDS011;25402;42.004;23.088;2023-05-09T13:25:04;5.18;;;4.40;;
39728;SDS011;25402;42.004;23.088;2023-05-09T13:27:32;10.68;;;4.95;;
39728;SDS011;25402;42.004;23.088;2023-05-09T13:29:59;9.20;;;4.88;;
39728;SDS011;25402;42.004;23.088;2023-05-09T13:32:26;6.22;;;4.90;;
39728;SDS011;25402;42.004;23.088;2023-05-09T13:34:53;6.50;;;4.80;;
39728;SDS011;25402;42.004;23.088;2023-05-09T13:37:22;7.10;;;5.00;;
39728;SDS011;25402;42.004;23.088;2023-05-09T13:39:50;7.00;;;5.03;;
39728;SDS011;25402;42.004;23.088;2023-05-09T13:42:18;6.03;;;4.85;;
39728;SDS011;25402;42.004;23.088;2023-05-09T13:44:46;7.13;;;5.22;;
39728;SDS011;25402;42.004;23.088;2023-05-09T13:47:13;9.90;;;4.80;;
39728;SDS011;25402;42.004;23.088;2023-05-09T13:49:40;12.57;;;5.65;;
39728;SDS011;25402;42.004;23.088;2023-05-09T13:52:07;11.57;;;4.55;;
39728;SDS011;25402;42.004;23.088;2023-05-09T13:54:36;5.72;;;4.57;;
39728;SDS011;25402;42.004;23.088;2023-05-09T13:57:06;7.78;;;4.93;;
39728;SDS011;25402;42.004;23.088;2023-05-09T13:59:33;7.45;;;5.00;;
39728;SDS011;25402;42.004;23.088;2023-05-09T14:02:15;7.90;;;4.45;;
39728;SDS011;25402;42.004;23.088;2023-05-09T14:04:42;14.35;;;6.43;;
39728;SDS011;25402;42.004;23.088;2023-05-09T14:07:10;10.70;;;5.57;;
39728;SDS011;25402;42.004;23.088;2023-05-09T14:09:40;12.48;;;7.32;;
39728;SDS011;25402;42.004;23.088;2023-05-09T14:12:08;10.77;;;8.07;;
39728;SDS011;25402;42.004;23.088;2023-05-09T14:14:35;9.68;;;6.47;;
39728;SDS011;25402;42.004;23.088;2023-05-09T14:17:02;15.82;;;7.60;;
39728;SDS011;25402;42.004;23.088;2023-05-09T14:19:29;13.93;;;5.88;;
39728;SDS011;25402;42.004;23.088;2023-05-09T14:21:56;6.97;;;5.70;;
39728;SDS011;25402;42.004;23.088;2023-05-09T14:24:27;7.32;;;6.13;;
39728;SDS011;25402;42.004;23.088;2023-05-09T14:26:56;8.52;;;5.32;;
39728;SDS011;25402;42.004;23.088;2023-05-09T14:29:25;7.88;;;5.50;;
39728;SDS011;25402;42.004;23.088;2023-05-09T14:31:53;9.80;;;5.47;;
39728;SDS011;25402;42.004;23.088;2023-05-09T14:34:25;5.30;;;4.13;;
39728;SDS011;25402;42.004;23.088;2023-05-09T14:36:54;8.18;;;5.88;;
39728;SDS011;25402;42.004;23.088;2023-05-09T14:39:38;5.10;;;4.25;;
39728;SDS011;25402;42.004;23.088;2023-05-09T14:42:12;5.13;;;4.53;;
39728;SDS011;25402;42.004;23.088;2023-05-09T14:44:41;5.47;;;4.15;;
39728;SDS011;25402;42.004;23.088;2023-05-09T14:47:12;7.03;;;4.93;;
39728;SDS011;25402;42.004;23.088;2023-05-09T14:49:42;7.78;;;4.80;;